createdAt,value
2018-08-12T00:00:10.321Z,2.00
2018-08-12T00:02:39.007Z,2.10
2018-08-12T00:05:07.671Z,1.80
2018-08-12T00:07:36.319Z,1.77
2018-08-12T00:10:07.391Z,1.90
2018-08-12T00:12:36.247Z,2.10
2018-08-12T00:15:05.642Z,2.10
2018-08-12T00:17:34.368Z,1.80
2018-08-12T00:20:03.129Z,2.10
2018-08-12T00:22:31.850Z,1.80
2018-08-12T00:25:00.571Z,1.70
2018-08-12T00:27:29.278Z,1.93
2018-08-12T00:29:57.976Z,1.93
2018-08-12T00:32:26.631Z,2.10
2018-08-12T00:34:55.333Z,1.90
2018-08-12T00:37:23.997Z,2.10
2018-08-12T00:39:52.684Z,2.10
2018-08-12T00:42:21.352Z,2.13
2018-08-12T00:44:50.070Z,2.10
2018-08-12T00:47:21.599Z,2.20
2018-08-12T00:49:50.283Z,2.03
2018-08-12T00:52:18.959Z,2.07
2018-08-12T00:54:47.644Z,2.20
2018-08-12T00:57:16.403Z,2.17
2018-08-12T00:59:45.075Z,2.20
2018-08-12T01:02:13.719Z,1.80
2018-08-12T01:04:42.414Z,2.13
2018-08-12T01:07:11.111Z,2.13
2018-08-12T01:09:39.865Z,2.20
2018-08-12T01:12:08.541Z,1.97
2018-08-12T01:14:37.188Z,2.60
2018-08-12T01:17:06.079Z,2.10
2018-08-12T01:19:34.742Z,2.03
2018-08-12T01:22:03.492Z,2.20
2018-08-12T01:24:32.204Z,2.20
2018-08-12T01:27:00.853Z,2.30
2018-08-12T01:29:29.556Z,2.27
2018-08-12T01:31:58.247Z,1.60
2018-08-12T01:34:26.937Z,1.80
2018-08-12T01:36:55.633Z,1.77
2018-08-12T01:39:24.327Z,2.10
2018-08-12T01:41:52.955Z,1.90
2018-08-12T01:44:21.618Z,2.20
2018-08-12T01:46:50.258Z,2.40
2018-08-12T01:49:18.918Z,2.37
2018-08-12T01:51:47.567Z,2.20
2018-08-12T01:54:16.231Z,2.90
2018-08-12T01:56:44.892Z,2.60
2018-08-12T01:59:13.568Z,2.53
2018-08-12T02:01:42.207Z,2.17
2018-08-12T02:04:10.879Z,2.20
2018-08-12T02:06:39.556Z,2.10
2018-08-12T02:09:10.198Z,2.60
2018-08-12T02:11:38.895Z,2.13
2018-08-12T02:14:08.118Z,2.07
2018-08-12T02:16:37.089Z,2.10
2018-08-12T02:19:06.065Z,2.20
2018-08-12T02:21:34.974Z,2.90
2018-08-12T02:24:03.643Z,2.63
2018-08-12T02:26:32.319Z,2.30
2018-08-12T02:29:00.978Z,2.60
2018-08-12T02:31:29.690Z,2.67
2018-08-12T02:33:58.346Z,3.20
2018-08-12T02:36:27.031Z,2.87
2018-08-12T02:38:55.711Z,2.90
2018-08-12T02:41:24.399Z,3.87
2018-08-12T02:43:53.052Z,3.10
2018-08-12T02:46:21.735Z,3.23
2018-08-12T02:48:50.406Z,3.50
2018-08-12T02:51:19.077Z,3.10
2018-08-12T02:53:47.763Z,3.20
2018-08-12T02:56:16.459Z,3.00
2018-08-12T02:58:45.139Z,3.60
2018-08-12T03:01:13.811Z,3.40
2018-08-12T03:03:42.517Z,3.53
2018-08-12T03:06:11.192Z,3.80
2018-08-12T03:08:39.869Z,3.77
2018-08-12T03:11:08.549Z,3.83
2018-08-12T03:13:37.237Z,3.50
2018-08-12T03:16:06.023Z,3.70
2018-08-12T03:18:34.716Z,4.10
2018-08-12T03:21:03.605Z,3.40
2018-08-12T03:23:32.583Z,3.80
2018-08-12T03:26:01.278Z,3.70
2018-08-12T03:28:29.954Z,3.60
2018-08-12T03:30:58.923Z,3.40
2018-08-12T03:33:27.571Z,3.87
2018-08-12T03:35:56.226Z,4.43
2018-08-12T03:38:24.931Z,4.47
2018-08-12T03:40:53.603Z,4.17
2018-08-12T03:43:22.267Z,4.30
2018-08-12T03:45:50.971Z,4.23
2018-08-12T03:48:19.615Z,3.20
2018-08-12T03:50:48.283Z,3.10
2018-08-12T03:53:16.923Z,3.43
2018-08-12T03:55:45.640Z,3.77
2018-08-12T03:58:14.296Z,3.60
2018-08-12T04:00:42.967Z,3.77
2018-08-12T04:03:11.632Z,4.03
2018-08-12T04:05:40.323Z,3.70
2018-08-12T04:08:08.975Z,3.80
2018-08-12T04:10:37.654Z,4.23
2018-08-12T04:13:06.367Z,4.30
2018-08-12T04:15:35.028Z,3.90
2018-08-12T04:18:03.802Z,4.00
2018-08-12T04:20:32.467Z,4.10
2018-08-12T04:23:01.151Z,3.90
2018-08-12T04:25:29.835Z,3.97
2018-08-12T04:27:58.508Z,3.80
2018-08-12T04:30:27.236Z,3.90
2018-08-12T04:32:55.914Z,3.93
2018-08-12T04:35:24.582Z,4.17
2018-08-12T04:37:53.258Z,4.13
2018-08-12T04:40:21.934Z,3.67
2018-08-12T04:42:50.618Z,4.00
2018-08-12T04:45:19.329Z,4.87
2018-08-12T04:47:48.012Z,4.10
2018-08-12T04:50:16.697Z,3.83
2018-08-12T04:52:45.381Z,4.33
2018-08-12T04:55:14.073Z,4.07
2018-08-12T04:57:42.750Z,4.13
2018-08-12T05:00:11.521Z,4.50
2018-08-12T05:02:40.296Z,4.30
2018-08-12T05:05:09.405Z,4.60
2018-08-12T05:07:38.121Z,4.50
2018-08-12T05:10:07.364Z,4.17
2018-08-12T05:12:36.075Z,3.87
2018-08-12T05:15:05.851Z,3.83
2018-08-12T05:17:34.560Z,3.60
2018-08-12T05:20:03.278Z,4.00
2018-08-12T05:22:32.006Z,3.70
2018-08-12T05:25:00.655Z,3.30
2018-08-12T05:27:29.344Z,3.30
2018-08-12T05:29:57.987Z,3.73
2018-08-12T05:32:26.664Z,3.57
2018-08-12T05:34:55.387Z,3.67
2018-08-12T05:37:24.037Z,3.40
2018-08-12T05:39:52.696Z,3.40
2018-08-12T05:42:21.417Z,3.20
2018-08-12T05:44:50.115Z,3.37
2018-08-12T05:47:18.763Z,3.63
2018-08-12T05:49:47.409Z,3.33
2018-08-12T05:52:16.075Z,3.87
2018-08-12T05:54:44.760Z,3.73
2018-08-12T05:57:13.463Z,3.50
2018-08-12T05:59:42.102Z,3.80
2018-08-12T06:02:10.834Z,3.90
2018-08-12T06:04:39.499Z,3.80
2018-08-12T06:07:08.147Z,3.90
2018-08-12T06:09:36.799Z,3.90
2018-08-12T06:12:05.508Z,3.60
2018-08-12T06:14:34.172Z,3.40
2018-08-12T06:17:02.906Z,3.60
2018-08-12T06:19:31.583Z,3.30
2018-08-12T06:22:00.264Z,3.40
2018-08-12T06:24:28.937Z,3.53
2018-08-12T06:26:57.614Z,3.30
2018-08-12T06:29:26.311Z,3.23
2018-08-12T06:31:54.972Z,3.83
2018-08-12T06:34:23.701Z,3.57
2018-08-12T06:36:52.367Z,3.20
2018-08-12T06:39:21.154Z,3.20
2018-08-12T06:41:49.800Z,3.00
2018-08-12T06:44:18.485Z,3.20
2018-08-12T06:46:47.162Z,3.73
2018-08-12T06:49:15.854Z,3.80
2018-08-12T06:51:44.577Z,3.70
2018-08-12T06:54:13.251Z,4.00
2018-08-12T06:59:38.444Z,3.57
2018-08-12T07:02:21.108Z,3.63
2018-08-12T07:04:49.804Z,3.73
2018-08-12T07:07:18.464Z,3.20
2018-08-12T07:09:47.156Z,3.63
2018-08-12T07:12:15.833Z,3.50
2018-08-12T07:14:44.547Z,3.33
2018-08-12T07:17:13.219Z,3.10
2018-08-12T07:19:41.893Z,3.00
2018-08-12T07:22:10.580Z,3.70
2018-08-12T07:24:39.347Z,3.30
2018-08-12T07:27:08.089Z,3.00
2018-08-12T07:29:36.791Z,3.13
2018-08-12T07:32:05.427Z,2.70
2018-08-12T07:34:34.126Z,2.33
2018-08-12T07:37:02.836Z,2.70
2018-08-12T07:39:31.575Z,3.00
2018-08-12T07:42:00.283Z,2.97
2018-08-12T07:44:28.983Z,2.50
2018-08-12T07:46:57.656Z,3.07
2018-08-12T07:49:26.326Z,2.67
2018-08-12T07:51:54.996Z,2.70
2018-08-12T07:54:23.714Z,2.30
2018-08-12T07:56:52.400Z,1.90
2018-08-12T07:59:21.106Z,2.50
2018-08-12T08:01:49.790Z,2.50
2018-08-12T08:04:18.517Z,2.37
2018-08-12T08:06:47.255Z,2.13
2018-08-12T08:09:15.929Z,1.87
2018-08-12T08:11:44.657Z,2.63
2018-08-12T08:14:13.369Z,2.70
2018-08-12T08:16:42.040Z,2.30
2018-08-12T08:19:10.818Z,2.60
2018-08-12T08:21:39.528Z,2.47
2018-08-12T08:24:08.235Z,2.30
2018-08-12T08:26:36.944Z,2.10
2018-08-12T08:29:06.026Z,2.40
2018-08-12T08:31:34.745Z,2.20
2018-08-12T08:34:03.428Z,1.83
2018-08-12T08:36:32.116Z,2.40
2018-08-12T08:39:00.850Z,2.17
2018-08-12T08:41:29.505Z,1.50
2018-08-12T08:43:58.227Z,2.63
2018-08-12T08:46:26.965Z,2.10
2018-08-12T08:48:55.641Z,2.20
2018-08-12T08:51:24.307Z,2.10
2018-08-12T08:53:52.966Z,3.07
2018-08-12T08:56:21.703Z,3.10
2018-08-12T08:58:50.395Z,2.70
2018-08-12T09:01:19.067Z,2.90
2018-08-12T09:03:47.756Z,3.10
2018-08-12T09:06:16.437Z,2.93
2018-08-12T09:08:45.340Z,3.70
2018-08-12T09:11:13.823Z,4.50
2018-08-12T09:13:42.490Z,4.20
2018-08-12T09:16:11.196Z,4.17
2018-08-12T09:18:39.857Z,4.17
2018-08-12T09:21:08.527Z,3.17
2018-08-12T09:23:37.222Z,4.30
2018-08-12T09:26:05.975Z,3.53
2018-08-12T09:28:34.768Z,4.90
2018-08-12T09:31:03.518Z,4.97
2018-08-12T09:33:32.217Z,4.37
2018-08-12T09:36:00.899Z,4.77
2018-08-12T09:38:29.553Z,5.13
2018-08-12T09:40:58.224Z,4.30
2018-08-12T09:43:26.880Z,4.57
2018-08-12T09:45:55.593Z,4.40
2018-08-12T09:48:24.265Z,5.23
2018-08-12T09:50:52.943Z,4.20
2018-08-12T09:53:21.631Z,5.60
2018-08-12T09:55:50.315Z,4.80
2018-08-12T09:58:18.990Z,5.20
2018-08-12T10:00:47.722Z,5.20
2018-08-12T10:03:16.419Z,5.20
2018-08-12T10:05:45.103Z,4.10
2018-08-12T10:08:13.760Z,4.53
2018-08-12T10:10:42.443Z,5.23
2018-08-12T10:13:11.126Z,5.17
2018-08-12T10:15:39.974Z,4.83
2018-08-12T10:18:08.769Z,4.40
2018-08-12T10:20:37.497Z,4.30
2018-08-12T10:23:06.235Z,5.10
2018-08-12T10:25:34.948Z,5.60
2018-08-12T10:28:03.651Z,4.90
2018-08-12T10:30:32.326Z,4.57
2018-08-12T10:33:01.018Z,4.40
2018-08-12T10:35:29.697Z,4.47
2018-08-12T10:37:58.493Z,4.20
2018-08-12T10:40:27.153Z,4.50
2018-08-12T10:42:55.839Z,4.20
2018-08-12T10:45:24.513Z,4.70
2018-08-12T10:47:53.198Z,4.47
2018-08-12T10:50:21.886Z,4.43
2018-08-12T10:52:51.000Z,4.63
2018-08-12T10:55:21.422Z,3.90
2018-08-12T10:57:50.257Z,4.37
2018-08-12T11:00:22.541Z,4.20
2018-08-12T11:02:51.329Z,4.27
2018-08-12T11:05:20.074Z,4.70
2018-08-12T11:07:51.419Z,4.23
2018-08-12T11:10:20.304Z,3.03
2018-08-12T11:12:49.052Z,2.80
2018-08-12T11:15:17.729Z,2.73
2018-08-12T11:17:46.456Z,2.30
2018-08-12T11:20:15.139Z,2.17
2018-08-12T11:22:43.957Z,2.53
2018-08-12T11:25:13.195Z,2.57
2018-08-12T11:27:41.947Z,2.37
2018-08-12T11:30:13.035Z,2.17
2018-08-12T11:32:41.863Z,1.83
2018-08-12T11:35:12.292Z,2.10
2018-08-12T11:37:41.825Z,2.10
2018-08-12T11:40:11.547Z,1.90
2018-08-12T11:42:40.297Z,1.80
2018-08-12T11:45:15.408Z,1.70
2018-08-12T11:47:44.613Z,2.03
2018-08-12T11:50:13.979Z,1.70
2018-08-12T11:52:43.507Z,1.80
2018-08-12T11:55:13.599Z,1.80
2018-08-12T11:57:42.415Z,2.07
2018-08-12T12:00:14.970Z,1.83
2018-08-12T12:02:44.259Z,2.10
2018-08-12T12:05:14.358Z,2.13
2018-08-12T12:07:43.368Z,2.03
2018-08-12T12:10:15.392Z,2.00
2018-08-12T12:12:45.414Z,1.80
2018-08-12T12:15:15.004Z,1.80
2018-08-12T12:17:44.566Z,1.83
2018-08-12T12:20:14.359Z,1.40
2018-08-12T12:22:43.807Z,1.60
2018-08-12T12:25:14.747Z,1.53
2018-08-12T12:27:43.447Z,1.40
2018-08-12T12:30:16.967Z,1.53
2018-08-12T12:32:46.395Z,1.50
2018-08-12T12:35:15.118Z,1.47
2018-08-12T12:37:44.019Z,1.37
2018-08-12T12:40:14.544Z,1.40
2018-08-12T12:42:43.636Z,1.30
2018-08-12T12:45:13.295Z,1.30
2018-08-12T12:47:42.640Z,1.43
2018-08-12T12:50:18.838Z,1.57
2018-08-12T12:52:48.419Z,1.60
2018-08-12T12:55:17.613Z,1.40
2018-08-12T12:57:46.395Z,1.50
2018-08-12T13:00:16.549Z,1.57
2018-08-12T13:02:45.260Z,1.40
2018-08-12T13:05:15.493Z,1.47
2018-08-12T13:07:45.268Z,1.53
2018-08-12T13:10:14.889Z,1.50
2018-08-12T13:12:43.898Z,1.40
2018-08-12T13:15:13.490Z,1.40
2018-08-12T13:17:42.210Z,1.47
2018-08-12T13:20:13.334Z,1.70
2018-08-12T13:22:42.608Z,1.50
2018-08-12T13:25:13.744Z,1.40
2018-08-12T13:27:43.282Z,1.50
2018-08-12T13:30:13.108Z,1.70
2018-08-12T13:32:43.051Z,1.67
2018-08-12T13:35:11.803Z,1.27
2018-08-12T13:37:40.557Z,1.50
2018-08-12T13:40:13.040Z,1.60
2018-08-12T13:42:42.482Z,1.67
2018-08-12T13:45:12.285Z,1.30
2018-08-12T13:47:42.438Z,1.60
2018-08-12T13:50:13.134Z,1.47
2018-08-12T13:52:41.864Z,1.50
2018-08-12T13:55:10.645Z,1.50
2018-08-12T13:57:39.370Z,1.40
2018-08-12T14:00:17.324Z,1.60
2018-08-12T14:02:46.085Z,1.30
2018-08-12T14:05:16.280Z,1.43
2018-08-12T14:07:45.487Z,1.30
2018-08-12T14:10:14.181Z,1.43
2018-08-12T14:12:42.880Z,1.40
2018-08-12T14:15:14.074Z,1.50
2018-08-12T14:17:43.771Z,1.43
2018-08-12T14:20:14.096Z,1.60
2018-08-12T14:22:43.132Z,1.57
2018-08-12T14:25:12.111Z,1.60
2018-08-12T14:27:42.508Z,1.60
2018-08-12T14:30:14.015Z,1.60
2018-08-12T14:32:43.387Z,1.50
2018-08-12T14:35:12.067Z,1.60
2018-08-12T14:37:41.097Z,1.47
2018-08-12T14:40:11.265Z,1.90
2018-08-12T14:42:39.988Z,1.57
2018-08-12T14:45:10.264Z,1.60
2018-08-12T14:47:39.506Z,1.70
2018-08-12T14:50:10.538Z,1.70
2018-08-12T14:52:39.457Z,1.40
2018-08-12T14:55:09.175Z,1.67
2018-08-12T14:57:37.893Z,1.90
2018-08-12T15:00:08.183Z,1.80
2018-08-12T15:02:36.863Z,1.90
2018-08-12T15:05:06.097Z,1.57
2018-08-12T15:07:34.837Z,2.20
2018-08-12T15:10:03.630Z,1.80
2018-08-12T15:12:32.287Z,1.87
2018-08-12T15:15:01.017Z,1.67
2018-08-12T15:17:29.720Z,2.10
2018-08-12T15:19:58.403Z,1.50
2018-08-12T15:22:27.120Z,2.00
2018-08-12T15:24:55.776Z,2.00
2018-08-12T15:27:24.458Z,2.10
2018-08-12T15:29:53.144Z,2.00
2018-08-12T15:32:21.826Z,1.97
2018-08-12T15:34:50.851Z,1.93
2018-08-12T15:37:19.485Z,1.80
2018-08-12T15:39:48.151Z,1.90
2018-08-12T15:42:16.865Z,2.00
2018-08-12T15:44:45.533Z,2.30
2018-08-12T15:47:14.235Z,1.60
2018-08-12T15:49:42.946Z,1.60
2018-08-12T15:52:11.619Z,1.80
2018-08-12T15:54:40.286Z,1.70
2018-08-12T15:57:08.972Z,1.50
2018-08-12T15:59:37.667Z,2.30
2018-08-12T16:02:06.496Z,1.83
2018-08-12T16:04:35.228Z,1.70
2018-08-12T16:07:08.532Z,1.90
2018-08-12T16:09:37.632Z,1.80
2018-08-12T16:12:07.839Z,1.80
2018-08-12T16:14:36.592Z,1.87
2018-08-12T16:17:05.601Z,2.20
2018-08-12T16:19:34.365Z,1.97
2018-08-12T16:22:03.057Z,1.70
2018-08-12T16:24:31.706Z,1.60
2018-08-12T16:27:00.354Z,1.77
2018-08-12T16:29:29.038Z,1.90
2018-08-12T16:31:57.717Z,1.60
2018-08-12T16:34:26.404Z,1.77
2018-08-12T16:36:55.054Z,2.10
2018-08-12T16:39:23.746Z,1.97
2018-08-12T16:41:52.392Z,1.80
2018-08-12T16:44:21.083Z,2.10
2018-08-12T16:46:49.738Z,2.10
2018-08-12T16:49:18.467Z,2.00
2018-08-12T16:51:47.131Z,2.10
2018-08-12T16:54:15.794Z,2.03
2018-08-12T16:56:44.470Z,1.90
2018-08-12T16:59:13.186Z,2.10
2018-08-12T17:01:41.829Z,2.33
2018-08-12T17:04:10.616Z,2.20
2018-08-12T17:06:39.235Z,2.00
2018-08-12T17:09:10.737Z,2.30
2018-08-12T17:11:39.400Z,2.40
2018-08-12T17:14:08.852Z,2.00
2018-08-12T17:16:37.543Z,2.30
2018-08-12T17:19:06.255Z,1.80
2018-08-12T17:21:34.965Z,2.13
2018-08-12T17:24:03.631Z,2.00
2018-08-12T17:26:32.305Z,2.53
2018-08-12T17:29:00.964Z,2.00
2018-08-12T17:31:29.674Z,2.10
2018-08-12T17:33:58.399Z,2.33
2018-08-12T17:36:27.065Z,2.37
2018-08-12T17:38:55.736Z,2.10
2018-08-12T17:41:24.433Z,2.03
2018-08-12T17:43:53.095Z,1.90
2018-08-12T17:46:21.780Z,2.13
2018-08-12T17:48:50.448Z,2.40
2018-08-12T17:51:19.123Z,2.17
2018-08-12T17:53:47.767Z,2.27
2018-08-12T17:56:16.439Z,2.37
2018-08-12T17:58:45.136Z,2.00
2018-08-12T18:01:13.845Z,1.93
2018-08-12T18:03:42.539Z,2.00
2018-08-12T18:06:11.222Z,2.40
2018-08-12T18:08:39.909Z,2.70
2018-08-12T18:11:09.122Z,2.43
2018-08-12T18:13:37.761Z,2.30
2018-08-12T18:16:06.427Z,2.50
2018-08-12T18:18:35.158Z,2.80
2018-08-12T18:21:03.844Z,3.00
2018-08-12T18:23:32.512Z,3.60
2018-08-12T18:26:01.214Z,3.57
2018-08-12T18:28:29.857Z,3.03
2018-08-12T18:30:58.529Z,2.50
2018-08-12T18:33:27.200Z,2.23
2018-08-12T18:35:55.865Z,2.30
2018-08-12T18:38:24.546Z,2.20
2018-08-12T18:40:53.231Z,2.50
2018-08-12T18:43:21.953Z,2.50
2018-08-12T18:45:50.652Z,2.10
2018-08-12T18:48:19.287Z,2.50
2018-08-12T18:50:47.994Z,3.00
2018-08-12T18:53:16.642Z,3.37
2018-08-12T18:55:45.314Z,3.63
2018-08-12T18:58:14.014Z,3.20
2018-08-12T19:00:42.697Z,3.13
2018-08-12T19:03:11.352Z,3.30
2018-08-12T19:05:40.063Z,3.20
2018-08-12T19:08:08.712Z,4.30
2018-08-12T19:10:37.402Z,2.80
2018-08-12T19:13:06.137Z,3.40
2018-08-12T19:15:34.804Z,2.60
2018-08-12T19:18:03.554Z,2.40
2018-08-12T19:20:32.207Z,3.93
2018-08-12T19:23:00.945Z,3.60
2018-08-12T19:25:29.607Z,3.80
2018-08-12T19:27:58.331Z,3.27
2018-08-12T19:30:26.995Z,2.97
2018-08-12T19:32:55.671Z,3.90
2018-08-12T19:35:24.324Z,3.53
2018-08-12T19:37:53.027Z,4.00
2018-08-12T19:40:21.693Z,4.03
2018-08-12T19:42:50.393Z,4.27
2018-08-12T19:45:19.033Z,3.90
2018-08-12T19:47:47.691Z,3.87
2018-08-12T19:50:16.340Z,3.60
2018-08-12T19:52:45.004Z,3.17
2018-08-12T19:55:13.652Z,3.70
2018-08-12T19:57:42.332Z,3.87
2018-08-12T20:00:13.544Z,4.50
2018-08-12T20:02:42.888Z,3.53
2018-08-12T20:05:11.543Z,3.73
2018-08-12T20:07:40.233Z,3.80
2018-08-12T20:10:10.305Z,3.37
2018-08-12T20:12:38.983Z,4.07
2018-08-12T20:15:09.555Z,4.50
2018-08-12T20:17:38.343Z,4.57
2018-08-12T20:20:08.600Z,4.30
2018-08-12T20:22:37.317Z,4.50
2018-08-12T20:25:06.761Z,4.27
2018-08-12T20:27:35.506Z,4.83
2018-08-12T20:30:04.305Z,4.50
2018-08-12T20:32:33.042Z,5.53
2018-08-12T20:35:01.739Z,5.00
2018-08-12T20:37:30.502Z,4.70
2018-08-12T20:39:59.155Z,4.63
2018-08-12T20:42:27.840Z,5.00
2018-08-12T20:44:56.549Z,4.70
2018-08-12T20:47:25.256Z,4.43
2018-08-12T20:49:53.906Z,4.97
2018-08-12T20:52:22.621Z,4.00
2018-08-12T20:54:51.281Z,4.80
2018-08-12T20:57:19.987Z,4.20
2018-08-12T20:59:48.645Z,4.30
2018-08-12T21:02:17.358Z,4.00
2018-08-12T21:04:46.091Z,3.93
2018-08-12T21:07:14.794Z,3.80
2018-08-12T21:09:43.448Z,4.03
2018-08-12T21:12:12.277Z,3.70
2018-08-12T21:14:40.811Z,4.07
2018-08-12T21:17:09.497Z,3.90
2018-08-12T21:19:38.163Z,4.33
2018-08-12T21:22:06.868Z,3.97
2018-08-12T21:24:35.586Z,3.33
2018-08-12T21:27:04.294Z,3.30
2018-08-12T21:29:32.966Z,3.83
2018-08-12T21:32:01.647Z,3.77
2018-08-12T21:34:30.307Z,3.47
2018-08-12T21:36:58.947Z,3.73
2018-08-12T21:39:27.617Z,3.50
2018-08-12T21:41:56.244Z,3.40
2018-08-12T21:44:24.908Z,3.50
2018-08-12T21:46:53.566Z,3.90
2018-08-12T21:49:22.234Z,3.40
2018-08-12T21:51:50.894Z,3.17
2018-08-12T21:54:19.561Z,3.50
2018-08-12T21:56:48.226Z,3.60
2018-08-12T21:59:16.915Z,3.90
2018-08-12T22:01:46.265Z,3.60
2018-08-12T22:04:14.984Z,3.50
2018-08-12T22:06:43.660Z,3.50
2018-08-12T22:09:12.784Z,3.60
2018-08-12T22:11:41.786Z,3.43
2018-08-12T22:14:10.504Z,3.50
2018-08-12T22:16:39.215Z,3.47
2018-08-12T22:19:07.931Z,3.40
2018-08-12T22:21:36.583Z,2.97
2018-08-12T22:24:05.330Z,3.10
2018-08-12T22:26:33.989Z,3.23
2018-08-12T22:29:02.704Z,3.30
2018-08-12T22:31:31.350Z,3.00
2018-08-12T22:34:00.058Z,3.20
2018-08-12T22:36:28.711Z,3.40
2018-08-12T22:38:57.421Z,3.40
2018-08-12T22:41:26.112Z,3.40
2018-08-12T22:43:54.867Z,3.63
2018-08-12T22:46:23.522Z,3.20
2018-08-12T22:48:52.190Z,3.70
2018-08-12T22:51:20.863Z,4.13
2018-08-12T22:53:49.579Z,4.10
2018-08-12T22:56:18.304Z,3.50
2018-08-12T22:58:46.976Z,4.00
2018-08-12T23:01:15.720Z,4.17
2018-08-12T23:03:44.622Z,4.47
2018-08-12T23:06:13.317Z,4.50
2018-08-12T23:08:42.034Z,4.93
2018-08-12T23:11:10.691Z,4.43
2018-08-12T23:13:39.376Z,4.40
2018-08-12T23:16:21.301Z,4.70
2018-08-12T23:18:50.045Z,4.57
2018-08-12T23:21:19.539Z,5.50
2018-08-12T23:23:49.276Z,4.97
2018-08-12T23:26:19.316Z,4.50
2018-08-12T23:28:48.096Z,4.83
2018-08-12T23:31:16.846Z,5.00
2018-08-12T23:33:45.517Z,4.80
2018-08-12T23:36:14.240Z,4.73
2018-08-12T23:38:42.896Z,4.50
2018-08-12T23:41:12.264Z,4.90
2018-08-12T23:43:40.924Z,4.70
2018-08-12T23:46:10.199Z,4.70
2018-08-12T23:48:38.897Z,4.93
2018-08-12T23:51:08.118Z,4.87
2018-08-12T23:53:36.762Z,4.83
2018-08-12T23:56:05.585Z,4.20
2018-08-12T23:58:34.297Z,4.80
